sensor_id;sensor_type;location;lat;lon;timestamp;P1;durP1;ratioP1;P2;durP2;ratioP2
75320;SDS011;68337;52.196;5.660;2024-03-02T00:01:27;1.40;;;1.10;;
75320;SDS011;68337;52.196;5.660;2024-03-02T00:03:53;2.95;;;1.85;;
75320;SDS011;68337;52.196;5.660;2024-03-02T00:06:20;3.95;;;1.80;;
75320;SDS011;68337;52.196;5.660;2024-03-02T00:08:46;2.80;;;1.25;;
75320;SDS011;68337;52.196;5.660;2024-03-02T00:11:12;1.73;;;1.20;;
75320;SDS011;68337;52.196;5.660;2024-03-02T00:13:40;1.50;;;1.40;;
75320;SDS011;68337;52.196;5.660;2024-03-02T00:16:06;2.95;;;1.80;;
75320;SDS011;68337;52.196;5.660;2024-03-02T00:18:32;1.48;;;1.00;;
75320;SDS011;68337;52.196;5.660;2024-03-02T00:20:59;3.28;;;1.20;;
75320;SDS011;68337;52.196;5.660;2024-03-02T00:23:29;1.80;;;1.50;;
75320;SDS011;68337;52.196;5.660;2024-03-02T00:25:56;1.88;;;1.50;;
75320;SDS011;68337;52.196;5.660;2024-03-02T00:28:24;3.15;;;1.98;;
75320;SDS011;68337;52.196;5.660;2024-03-02T00:31:06;1.75;;;1.40;;
75320;SDS011;68337;52.196;5.660;2024-03-02T00:35:59;2.70;;;1.30;;
75320;SDS011;68337;52.196;5.660;2024-03-02T00:38:28;3.15;;;1.02;;
75320;SDS011;68337;52.196;5.660;2024-03-02T00:40:56;1.52;;;1.20;;
75320;SDS011;68337;52.196;5.660;2024-03-02T00:46:07;3.58;;;1.20;;
75320;SDS011;68337;52.196;5.660;2024-03-02T00:48:33;2.47;;;1.20;;
75320;SDS011;68337;52.196;5.660;2024-03-02T00:51:01;1.33;;;1.20;;
75320;SDS011;68337;52.196;5.660;2024-03-02T00:53:29;1.50;;;1.10;;
75320;SDS011;68337;52.196;5.660;2024-03-02T00:55:56;3.78;;;1.60;;
75320;SDS011;68337;52.196;5.660;2024-03-02T00:58:22;1.63;;;0.98;;
75320;SDS011;68337;52.196;5.660;2024-03-02T01:00:47;2.17;;;1.20;;
75320;SDS011;68337;52.196;5.660;2024-03-02T01:03:13;1.77;;;1.17;;
75320;SDS011;68337;52.196;5.660;2024-03-02T01:05:41;1.33;;;1.00;;
75320;SDS011;68337;52.196;5.660;2024-03-02T01:08:07;3.38;;;1.13;;
75320;SDS011;68337;52.196;5.660;2024-03-02T01:10:34;2.75;;;1.27;;
75320;SDS011;68337;52.196;5.660;2024-03-02T01:12:59;2.58;;;1.15;;
75320;SDS011;68337;52.196;5.660;2024-03-02T01:15:25;3.80;;;1.42;;
75320;SDS011;68337;52.196;5.660;2024-03-02T01:17:51;1.80;;;1.35;;
75320;SDS011;68337;52.196;5.660;2024-03-02T01:20:16;2.65;;;1.42;;
75320;SDS011;68337;52.196;5.660;2024-03-02T01:22:42;1.58;;;1.08;;
75320;SDS011;68337;52.196;5.660;2024-03-02T01:25:08;1.20;;;1.10;;
75320;SDS011;68337;52.196;5.660;2024-03-02T01:27:35;1.13;;;1.02;;
75320;SDS011;68337;52.196;5.660;2024-03-02T01:30:00;3.20;;;1.00;;
75320;SDS011;68337;52.196;5.660;2024-03-02T01:32:26;1.60;;;0.88;;
75320;SDS011;68337;52.196;5.660;2024-03-02T01:34:52;0.60;;;0.60;;
75320;SDS011;68337;52.196;5.660;2024-03-02T01:37:18;0.75;;;0.50;;
75320;SDS011;68337;52.196;5.660;2024-03-02T01:39:44;2.75;;;0.80;;
75320;SDS011;68337;52.196;5.660;2024-03-02T01:42:09;0.50;;;0.50;;
75320;SDS011;68337;52.196;5.660;2024-03-02T01:44:36;0.95;;;0.68;;
75320;SDS011;68337;52.196;5.660;2024-03-02T01:47:02;2.25;;;0.63;;
75320;SDS011;68337;52.196;5.660;2024-03-02T01:49:27;0.40;;;0.40;;
75320;SDS011;68337;52.196;5.660;2024-03-02T01:51:53;2.13;;;0.57;;
75320;SDS011;68337;52.196;5.660;2024-03-02T01:54:19;0.73;;;0.60;;
75320;SDS011;68337;52.196;5.660;2024-03-02T01:56:45;0.40;;;0.40;;
75320;SDS011;68337;52.196;5.660;2024-03-02T01:59:11;0.82;;;0.60;;
75320;SDS011;68337;52.196;5.660;2024-03-02T02:01:38;1.38;;;0.80;;
75320;SDS011;68337;52.196;5.660;2024-03-02T02:04:04;0.40;;;0.40;;
75320;SDS011;68337;52.196;5.660;2024-03-02T02:06:31;1.92;;;0.50;;
75320;SDS011;68337;52.196;5.660;2024-03-02T02:08:57;0.40;;;0.40;;
75320;SDS011;68337;52.196;5.660;2024-03-02T02:11:23;0.77;;;0.60;;
75320;SDS011;68337;52.196;5.660;2024-03-02T02:13:49;1.30;;;0.40;;
75320;SDS011;68337;52.196;5.660;2024-03-02T02:16:15;0.73;;;0.40;;
75320;SDS011;68337;52.196;5.660;2024-03-02T02:18:41;0.60;;;0.60;;
75320;SDS011;68337;52.196;5.660;2024-03-02T02:21:07;0.63;;;0.63;;
75320;SDS011;68337;52.196;5.660;2024-03-02T02:23:33;1.35;;;0.65;;
75320;SDS011;68337;52.196;5.660;2024-03-02T02:25:59;0.88;;;0.63;;
75320;SDS011;68337;52.196;5.660;2024-03-02T02:28:24;0.68;;;0.60;;
75320;SDS011;68337;52.196;5.660;2024-03-02T02:30:50;0.60;;;0.60;;
75320;SDS011;68337;52.196;5.660;2024-03-02T02:33:16;0.70;;;0.70;;
75320;SDS011;68337;52.196;5.660;2024-03-02T02:35:41;0.80;;;0.70;;
75320;SDS011;68337;52.196;5.660;2024-03-02T02:38:07;0.57;;;0.52;;
75320;SDS011;68337;52.196;5.660;2024-03-02T02:40:33;0.60;;;0.60;;
75320;SDS011;68337;52.196;5.660;2024-03-02T02:42:59;1.35;;;0.70;;
75320;SDS011;68337;52.196;5.660;2024-03-02T02:45:25;0.55;;;0.55;;
75320;SDS011;68337;52.196;5.660;2024-03-02T02:47:50;2.30;;;0.50;;
75320;SDS011;68337;52.196;5.660;2024-03-02T02:50:16;0.60;;;0.60;;
75320;SDS011;68337;52.196;5.660;2024-03-02T02:52:42;0.40;;;0.40;;
75320;SDS011;68337;52.196;5.660;2024-03-02T02:55:09;0.95;;;0.50;;
75320;SDS011;68337;52.196;5.660;2024-03-02T02:57:36;0.50;;;0.50;;
75320;SDS011;68337;52.196;5.660;2024-03-02T03:00:06;1.05;;;0.50;;
75320;SDS011;68337;52.196;5.660;2024-03-02T03:02:36;0.50;;;0.45;;
75320;SDS011;68337;52.196;5.660;2024-03-02T03:05:03;1.05;;;0.55;;
75320;SDS011;68337;52.196;5.660;2024-03-02T03:07:31;0.50;;;0.50;;
75320;SDS011;68337;52.196;5.660;2024-03-02T03:09:58;0.57;;;0.50;;
75320;SDS011;68337;52.196;5.660;2024-03-02T03:12:23;1.20;;;0.70;;
75320;SDS011;68337;52.196;5.660;2024-03-02T03:14:49;1.25;;;0.60;;
75320;SDS011;68337;52.196;5.660;2024-03-02T03:17:15;0.60;;;0.60;;
75320;SDS011;68337;52.196;5.660;2024-03-02T03:19:40;0.60;;;0.60;;
75320;SDS011;68337;52.196;5.660;2024-03-02T03:22:06;0.75;;;0.50;;
75320;SDS011;68337;52.196;5.660;2024-03-02T03:24:32;1.42;;;0.70;;
75320;SDS011;68337;52.196;5.660;2024-03-02T03:26:58;0.95;;;0.55;;
75320;SDS011;68337;52.196;5.660;2024-03-02T03:29:23;1.23;;;0.80;;
75320;SDS011;68337;52.196;5.660;2024-03-02T03:31:49;0.60;;;0.60;;
75320;SDS011;68337;52.196;5.660;2024-03-02T03:34:15;1.67;;;0.75;;
75320;SDS011;68337;52.196;5.660;2024-03-02T03:36:41;1.40;;;0.77;;
75320;SDS011;68337;52.196;5.660;2024-03-02T03:39:08;1.77;;;0.70;;
75320;SDS011;68337;52.196;5.660;2024-03-02T03:41:33;2.72;;;0.75;;
75320;SDS011;68337;52.196;5.660;2024-03-02T03:43:59;0.60;;;0.60;;
75320;SDS011;68337;52.196;5.660;2024-03-02T03:46:25;0.70;;;0.70;;
75320;SDS011;68337;52.196;5.660;2024-03-02T03:48:50;0.77;;;0.73;;
75320;SDS011;68337;52.196;5.660;2024-03-02T03:51:16;1.23;;;0.98;;
75320;SDS011;68337;52.196;5.660;2024-03-02T03:53:42;0.70;;;0.70;;
75320;SDS011;68337;52.196;5.660;2024-03-02T03:56:08;0.90;;;0.90;;
75320;SDS011;68337;52.196;5.660;2024-03-02T03:58:33;0.60;;;0.60;;
75320;SDS011;68337;52.196;5.660;2024-03-02T04:00:59;1.13;;;0.90;;
75320;SDS011;68337;52.196;5.660;2024-03-02T04:03:25;0.93;;;0.82;;
75320;SDS011;68337;52.196;5.660;2024-03-02T04:05:50;1.42;;;0.77;;
75320;SDS011;68337;52.196;5.660;2024-03-02T04:08:16;0.60;;;0.60;;
75320;SDS011;68337;52.196;5.660;2024-03-02T04:10:42;0.70;;;0.70;;
75320;SDS011;68337;52.196;5.660;2024-03-02T04:13:07;0.70;;;0.70;;
75320;SDS011;68337;52.196;5.660;2024-03-02T04:15:33;0.63;;;0.63;;
75320;SDS011;68337;52.196;5.660;2024-03-02T04:17:59;1.80;;;0.80;;
75320;SDS011;68337;52.196;5.660;2024-03-02T04:20:24;2.17;;;0.82;;
75320;SDS011;68337;52.196;5.660;2024-03-02T04:22:50;0.70;;;0.70;;
75320;SDS011;68337;52.196;5.660;2024-03-02T04:25:16;0.65;;;0.65;;
75320;SDS011;68337;52.196;5.660;2024-03-02T04:27:42;0.70;;;0.70;;
75320;SDS011;68337;52.196;5.660;2024-03-02T04:30:07;0.75;;;0.60;;
75320;SDS011;68337;52.196;5.660;2024-03-02T04:32:33;1.10;;;0.70;;
75320;SDS011;68337;52.196;5.660;2024-03-02T04:35:01;0.40;;;0.40;;
75320;SDS011;68337;52.196;5.660;2024-03-02T04:37:27;0.52;;;0.52;;
75320;SDS011;68337;52.196;5.660;2024-03-02T04:39:52;0.60;;;0.60;;
75320;SDS011;68337;52.196;5.660;2024-03-02T04:42:19;2.63;;;0.60;;
75320;SDS011;68337;52.196;5.660;2024-03-02T04:44:44;0.40;;;0.40;;
75320;SDS011;68337;52.196;5.660;2024-03-02T04:47:10;0.50;;;0.50;;
75320;SDS011;68337;52.196;5.660;2024-03-02T04:49:36;0.70;;;0.70;;
75320;SDS011;68337;52.196;5.660;2024-03-02T04:52:02;0.73;;;0.60;;
75320;SDS011;68337;52.196;5.660;2024-03-02T04:54:28;0.50;;;0.50;;
75320;SDS011;68337;52.196;5.660;2024-03-02T04:56:53;0.40;;;0.40;;
75320;SDS011;68337;52.196;5.660;2024-03-02T04:59:19;1.30;;;0.65;;
75320;SDS011;68337;52.196;5.660;2024-03-02T05:01:45;0.55;;;0.55;;
75320;SDS011;68337;52.196;5.660;2024-03-02T05:04:12;1.95;;;0.80;;
75320;SDS011;68337;52.196;5.660;2024-03-02T05:06:38;0.60;;;0.60;;
75320;SDS011;68337;52.196;5.660;2024-03-02T05:09:05;0.75;;;0.60;;
75320;SDS011;68337;52.196;5.660;2024-03-02T05:11:31;1.42;;;0.50;;
75320;SDS011;68337;52.196;5.660;2024-03-02T05:14:17;0.68;;;0.68;;
75320;SDS011;68337;52.196;5.660;2024-03-02T05:16:43;0.63;;;0.50;;
75320;SDS011;68337;52.196;5.660;2024-03-02T05:19:08;1.45;;;0.70;;
75320;SDS011;68337;52.196;5.660;2024-03-02T05:21:34;0.60;;;0.60;;
75320;SDS011;68337;52.196;5.660;2024-03-02T05:24:00;1.77;;;0.70;;
75320;SDS011;68337;52.196;5.660;2024-03-02T05:26:26;0.68;;;0.68;;
75320;SDS011;68337;52.196;5.660;2024-03-02T05:28:52;1.00;;;0.75;;
75320;SDS011;68337;52.196;5.660;2024-03-02T05:31:18;2.58;;;0.60;;
75320;SDS011;68337;52.196;5.660;2024-03-02T05:33:43;0.70;;;0.70;;
75320;SDS011;68337;52.196;5.660;2024-03-02T05:36:09;0.60;;;0.60;;
75320;SDS011;68337;52.196;5.660;2024-03-02T05:38:35;3.03;;;0.73;;
75320;SDS011;68337;52.196;5.660;2024-03-02T05:41:01;0.75;;;0.70;;
75320;SDS011;68337;52.196;5.660;2024-03-02T05:43:27;2.55;;;0.90;;
75320;SDS011;68337;52.196;5.660;2024-03-02T05:45:53;2.60;;;0.98;;
75320;SDS011;68337;52.196;5.660;2024-03-02T05:48:19;0.88;;;0.80;;
75320;SDS011;68337;52.196;5.660;2024-03-02T05:50:45;4.72;;;0.88;;
75320;SDS011;68337;52.196;5.660;2024-03-02T05:53:10;1.65;;;0.93;;
75320;SDS011;68337;52.196;5.660;2024-03-02T05:55:36;1.60;;;1.20;;
75320;SDS011;68337;52.196;5.660;2024-03-02T05:58:02;2.05;;;0.95;;
75320;SDS011;68337;52.196;5.660;2024-03-02T06:00:46;1.88;;;0.80;;
75320;SDS011;68337;52.196;5.660;2024-03-02T06:03:12;1.42;;;0.98;;
75320;SDS011;68337;52.196;5.660;2024-03-02T06:05:38;1.77;;;0.52;;
75320;SDS011;68337;52.196;5.660;2024-03-02T06:08:03;1.30;;;0.77;;
75320;SDS011;68337;52.196;5.660;2024-03-02T06:10:29;1.33;;;0.70;;
75320;SDS011;68337;52.196;5.660;2024-03-02T06:12:55;2.58;;;0.70;;
75320;SDS011;68337;52.196;5.660;2024-03-02T06:15:21;3.38;;;0.80;;
75320;SDS011;68337;52.196;5.660;2024-03-02T06:17:46;2.60;;;0.77;;
75320;SDS011;68337;52.196;5.660;2024-03-02T06:20:12;4.15;;;0.77;;
75320;SDS011;68337;52.196;5.660;2024-03-02T06:22:38;0.90;;;0.80;;
75320;SDS011;68337;52.196;5.660;2024-03-02T06:25:04;1.20;;;0.90;;
75320;SDS011;68337;52.196;5.660;2024-03-02T06:27:29;0.70;;;0.70;;
75320;SDS011;68337;52.196;5.660;2024-03-02T06:29:55;0.80;;;0.70;;
75320;SDS011;68337;52.196;5.660;2024-03-02T06:32:21;1.55;;;0.77;;
75320;SDS011;68337;52.196;5.660;2024-03-02T06:34:48;2.97;;;1.05;;
75320;SDS011;68337;52.196;5.660;2024-03-02T06:37:13;3.58;;;0.95;;
75320;SDS011;68337;52.196;5.660;2024-03-02T06:39:41;1.02;;;0.80;;
75320;SDS011;68337;52.196;5.660;2024-03-02T06:42:06;1.52;;;0.68;;
75320;SDS011;68337;52.196;5.660;2024-03-02T06:44:32;0.65;;;0.65;;
75320;SDS011;68337;52.196;5.660;2024-03-02T06:46:59;1.65;;;0.75;;
75320;SDS011;68337;52.196;5.660;2024-03-02T06:49:24;1.83;;;0.60;;
75320;SDS011;68337;52.196;5.660;2024-03-02T06:51:50;1.38;;;0.70;;
75320;SDS011;68337;52.196;5.660;2024-03-02T06:54:16;2.25;;;1.05;;
75320;SDS011;68337;52.196;5.660;2024-03-02T06:56:41;2.50;;;0.80;;
75320;SDS011;68337;52.196;5.660;2024-03-02T06:59:07;0.95;;;0.70;;
75320;SDS011;68337;52.196;5.660;2024-03-02T07:01:33;0.65;;;0.60;;
75320;SDS011;68337;52.196;5.660;2024-03-02T07:03:59;2.58;;;0.93;;
75320;SDS011;68337;52.196;5.660;2024-03-02T07:06:25;3.10;;;0.93;;
75320;SDS011;68337;52.196;5.660;2024-03-02T07:08:51;2.47;;;0.75;;
75320;SDS011;68337;52.196;5.660;2024-03-02T07:11:16;1.08;;;0.70;;
75320;SDS011;68337;52.196;5.660;2024-03-02T07:13:42;2.20;;;0.80;;
75320;SDS011;68337;52.196;5.660;2024-03-02T07:16:08;1.17;;;0.75;;
75320;SDS011;68337;52.196;5.660;2024-03-02T07:18:52;1.40;;;0.90;;
75320;SDS011;68337;52.196;5.660;2024-03-02T07:21:17;1.85;;;0.93;;
75320;SDS011;68337;52.196;5.660;2024-03-02T07:23:43;1.55;;;0.80;;
75320;SDS011;68337;52.196;5.660;2024-03-02T07:26:09;1.73;;;1.10;;
75320;SDS011;68337;52.196;5.660;2024-03-02T07:28:35;2.88;;;1.13;;
75320;SDS011;68337;52.196;5.660;2024-03-02T07:31:01;1.77;;;0.80;;
75320;SDS011;68337;52.196;5.660;2024-03-02T07:33:29;0.85;;;0.70;;
75320;SDS011;68337;52.196;5.660;2024-03-02T07:35:55;3.13;;;0.68;;
75320;SDS011;68337;52.196;5.660;2024-03-02T07:38:22;2.75;;;0.93;;
75320;SDS011;68337;52.196;5.660;2024-03-02T07:40:49;1.38;;;0.77;;
75320;SDS011;68337;52.196;5.660;2024-03-02T07:43:16;2.55;;;1.13;;
75320;SDS011;68337;52.196;5.660;2024-03-02T07:45:43;2.65;;;1.45;;
75320;SDS011;68337;52.196;5.660;2024-03-02T07:48:08;2.20;;;1.08;;
75320;SDS011;68337;52.196;5.660;2024-03-02T07:50:34;1.30;;;0.70;;
75320;SDS011;68337;52.196;5.660;2024-03-02T07:53:00;2.42;;;0.88;;
75320;SDS011;68337;52.196;5.660;2024-03-02T07:55:26;1.88;;;0.90;;
75320;SDS011;68337;52.196;5.660;2024-03-02T07:57:52;4.47;;;1.17;;
75320;SDS011;68337;52.196;5.660;2024-03-02T08:00:18;1.95;;;1.13;;
75320;SDS011;68337;52.196;5.660;2024-03-02T08:02:44;4.97;;;1.45;;
75320;SDS011;68337;52.196;5.660;2024-03-02T08:05:10;2.35;;;1.15;;
75320;SDS011;68337;52.196;5.660;2024-03-02T08:07:36;2.72;;;0.80;;
75320;SDS011;68337;52.196;5.660;2024-03-02T08:10:01;4.97;;;1.00;;
75320;SDS011;68337;52.196;5.660;2024-03-02T08:12:27;0.98;;;0.80;;
75320;SDS011;68337;52.196;5.660;2024-03-02T08:14:53;3.60;;;0.98;;
75320;SDS011;68337;52.196;5.660;2024-03-02T08:17:19;1.00;;;0.80;;
75320;SDS011;68337;52.196;5.660;2024-03-02T08:19:45;0.95;;;0.77;;
75320;SDS011;68337;52.196;5.660;2024-03-02T08:22:13;3.05;;;1.23;;
75320;SDS011;68337;52.196;5.660;2024-03-02T08:24:40;1.77;;;0.82;;
75320;SDS011;68337;52.196;5.660;2024-03-02T08:27:06;0.90;;;0.88;;
75320;SDS011;68337;52.196;5.660;2024-03-02T08:29:32;1.83;;;0.90;;
75320;SDS011;68337;52.196;5.660;2024-03-02T08:31:58;1.15;;;0.95;;
75320;SDS011;68337;52.196;5.660;2024-03-02T08:34:23;2.28;;;0.90;;
75320;SDS011;68337;52.196;5.660;2024-03-02T08:36:49;2.10;;;0.75;;
75320;SDS011;68337;52.196;5.660;2024-03-02T08:39:15;1.40;;;0.88;;
75320;SDS011;68337;52.196;5.660;2024-03-02T08:41:42;4.93;;;0.98;;
75320;SDS011;68337;52.196;5.660;2024-03-02T08:44:09;2.13;;;0.95;;
75320;SDS011;68337;52.196;5.660;2024-03-02T08:46:35;1.25;;;0.80;;
75320;SDS011;68337;52.196;5.660;2024-03-02T08:49:01;7.07;;;1.20;;
75320;SDS011;68337;52.196;5.660;2024-03-02T08:51:27;2.22;;;0.70;;
75320;SDS011;68337;52.196;5.660;2024-03-02T08:53:53;5.60;;;1.10;;
75320;SDS011;68337;52.196;5.660;2024-03-02T08:56:18;5.47;;;1.17;;
75320;SDS011;68337;52.196;5.660;2024-03-02T08:58:46;2.63;;;0.90;;
75320;SDS011;68337;52.196;5.660;2024-03-02T09:01:12;1.95;;;0.73;;
75320;SDS011;68337;52.196;5.660;2024-03-02T09:03:38;2.78;;;0.80;;
75320;SDS011;68337;52.196;5.660;2024-03-02T09:06:05;2.63;;;0.63;;
75320;SDS011;68337;52.196;5.660;2024-03-02T09:08:30;0.75;;;0.60;;
75320;SDS011;68337;52.196;5.660;2024-03-02T09:10:56;3.72;;;1.20;;
75320;SDS011;68337;52.196;5.660;2024-03-02T09:13:22;3.28;;;0.90;;
75320;SDS011;68337;52.196;5.660;2024-03-02T09:15:48;1.88;;;1.10;;
75320;SDS011;68337;52.196;5.660;2024-03-02T09:18:14;6.72;;;1.42;;
75320;SDS011;68337;52.196;5.660;2024-03-02T09:20:40;2.67;;;0.90;;
75320;SDS011;68337;52.196;5.660;2024-03-02T09:23:06;3.28;;;1.30;;
75320;SDS011;68337;52.196;5.660;2024-03-02T09:25:32;3.95;;;1.00;;
75320;SDS011;68337;52.196;5.660;2024-03-02T09:27:58;4.28;;;0.80;;
75320;SDS011;68337;52.196;5.660;2024-03-02T09:30:24;1.48;;;0.90;;
75320;SDS011;68337;52.196;5.660;2024-03-02T09:32:50;2.47;;;1.00;;
75320;SDS011;68337;52.196;5.660;2024-03-02T09:35:16;10.25;;;1.33;;
75320;SDS011;68337;52.196;5.660;2024-03-02T09:37:41;2.28;;;0.63;;
75320;SDS011;68337;52.196;5.660;2024-03-02T09:40:08;2.85;;;0.90;;
75320;SDS011;68337;52.196;5.660;2024-03-02T09:42:34;3.42;;;0.82;;
75320;SDS011;68337;52.196;5.660;2024-03-02T09:45:00;1.75;;;0.80;;
75320;SDS011;68337;52.196;5.660;2024-03-02T09:47:27;5.00;;;1.20;;
75320;SDS011;68337;52.196;5.660;2024-03-02T09:49:53;3.47;;;1.25;;
75320;SDS011;68337;52.196;5.660;2024-03-02T09:52:20;4.50;;;1.52;;
75320;SDS011;68337;52.196;5.660;2024-03-02T09:54:47;5.15;;;1.10;;
75320;SDS011;68337;52.196;5.660;2024-03-02T09:57:14;2.85;;;1.00;;
75320;SDS011;68337;52.196;5.660;2024-03-02T09:59:40;2.90;;;1.10;;
75320;SDS011;68337;52.196;5.660;2024-03-02T10:02:05;10.90;;;1.13;;
75320;SDS011;68337;52.196;5.660;2024-03-02T10:04:32;3.25;;;0.80;;
75320;SDS011;68337;52.196;5.660;2024-03-02T10:07:10;5.10;;;0.70;;
75320;SDS011;68337;52.196;5.660;2024-03-02T10:09:37;2.13;;;0.80;;
75320;SDS011;68337;52.196;5.660;2024-03-02T10:12:05;4.88;;;1.27;;
75320;SDS011;68337;52.196;5.660;2024-03-02T10:14:32;2.67;;;1.08;;
75320;SDS011;68337;52.196;5.660;2024-03-02T10:17:04;1.85;;;1.00;;
75320;SDS011;68337;52.196;5.660;2024-03-02T10:19:32;1.23;;;0.73;;
75320;SDS011;68337;52.196;5.660;2024-03-02T10:21:59;2.80;;;1.02;;
75320;SDS011;68337;52.196;5.660;2024-03-02T10:24:26;3.90;;;1.30;;
75320;SDS011;68337;52.196;5.660;2024-03-02T10:26:52;4.40;;;0.88;;
75320;SDS011;68337;52.196;5.660;2024-03-02T10:29:18;4.15;;;1.50;;
75320;SDS011;68337;52.196;5.660;2024-03-02T10:31:45;2.53;;;0.77;;
75320;SDS011;68337;52.196;5.660;2024-03-02T10:34:11;3.58;;;1.00;;
75320;SDS011;68337;52.196;5.660;2024-03-02T10:36:40;2.28;;;0.80;;
75320;SDS011;68337;52.196;5.660;2024-03-02T10:39:07;3.22;;;0.80;;
75320;SDS011;68337;52.196;5.660;2024-03-02T10:41:36;2.85;;;0.80;;
75320;SDS011;68337;52.196;5.660;2024-03-02T10:44:03;1.15;;;0.80;;
75320;SDS011;68337;52.196;5.660;2024-03-02T10:46:30;3.22;;;1.00;;
75320;SDS011;68337;52.196;5.660;2024-03-02T10:48:58;3.90;;;1.00;;
75320;SDS011;68337;52.196;5.660;2024-03-02T10:51:26;1.80;;;0.70;;
75320;SDS011;68337;52.196;5.660;2024-03-02T10:53:56;1.30;;;0.88;;
75320;SDS011;68337;52.196;5.660;2024-03-02T10:56:27;4.28;;;1.00;;
75320;SDS011;68337;52.196;5.660;2024-03-02T10:58:55;4.00;;;0.98;;
75320;SDS011;68337;52.196;5.660;2024-03-02T11:01:27;3.75;;;0.77;;
75320;SDS011;68337;52.196;5.660;2024-03-02T11:03:58;1.70;;;0.68;;
75320;SDS011;68337;52.196;5.660;2024-03-02T11:06:26;2.28;;;0.80;;
75320;SDS011;68337;52.196;5.660;2024-03-02T11:08:53;1.95;;;0.70;;
75320;SDS011;68337;52.196;5.660;2024-03-02T11:11:28;4.68;;;1.00;;
75320;SDS011;68337;52.196;5.660;2024-03-02T11:14:00;1.73;;;0.80;;
75320;SDS011;68337;52.196;5.660;2024-03-02T11:16:35;2.22;;;0.98;;
75320;SDS011;68337;52.196;5.660;2024-03-02T11:19:03;3.60;;;0.90;;
75320;SDS011;68337;52.196;5.660;2024-03-02T11:21:31;4.63;;;0.82;;
75320;SDS011;68337;52.196;5.660;2024-03-02T11:23:59;2.92;;;0.90;;
75320;SDS011;68337;52.196;5.660;2024-03-02T11:26:24;1.80;;;0.90;;
75320;SDS011;68337;52.196;5.660;2024-03-02T11:28:50;2.97;;;0.70;;
75320;SDS011;68337;52.196;5.660;2024-03-02T11:31:16;2.22;;;0.80;;
75320;SDS011;68337;52.196;5.660;2024-03-02T11:33:42;4.18;;;0.98;;
75320;SDS011;68337;52.196;5.660;2024-03-02T11:36:08;3.33;;;0.82;;
75320;SDS011;68337;52.196;5.660;2024-03-02T11:38:34;1.30;;;0.85;;
75320;SDS011;68337;52.196;5.660;2024-03-02T11:41:01;3.58;;;0.98;;
75320;SDS011;68337;52.196;5.660;2024-03-02T11:43:32;1.95;;;0.98;;
75320;SDS011;68337;52.196;5.660;2024-03-02T11:45:59;1.98;;;1.20;;
75320;SDS011;68337;52.196;5.660;2024-03-02T11:48:29;1.30;;;1.02;;
75320;SDS011;68337;52.196;5.660;2024-03-02T11:50:57;3.00;;;1.02;;
75320;SDS011;68337;52.196;5.660;2024-03-02T11:53:24;0.95;;;0.80;;
75320;SDS011;68337;52.196;5.660;2024-03-02T11:55:55;2.80;;;1.02;;
75320;SDS011;68337;52.196;5.660;2024-03-02T11:58:21;2.42;;;1.35;;
75320;SDS011;68337;52.196;5.660;2024-03-02T12:00:51;4.35;;;1.02;;
75320;SDS011;68337;52.196;5.660;2024-03-02T12:03:17;1.73;;;1.20;;
75320;SDS011;68337;52.196;5.660;2024-03-02T12:05:46;5.10;;;1.45;;
75320;SDS011;68337;52.196;5.660;2024-03-02T12:08:14;2.88;;;1.58;;
75320;SDS011;68337;52.196;5.660;2024-03-02T12:10:40;2.70;;;0.80;;
75320;SDS011;68337;52.196;5.660;2024-03-02T12:13:06;3.70;;;1.10;;
75320;SDS011;68337;52.196;5.660;2024-03-02T12:15:35;3.45;;;1.20;;
75320;SDS011;68337;52.196;5.660;2024-03-02T12:18:02;2.05;;;1.77;;
75320;SDS011;68337;52.196;5.660;2024-03-02T12:20:29;1.77;;;0.98;;
75320;SDS011;68337;52.196;5.660;2024-03-02T12:22:58;3.45;;;0.93;;
75320;SDS011;68337;52.196;5.660;2024-03-02T12:25:25;1.25;;;0.77;;
75320;SDS011;68337;52.196;5.660;2024-03-02T12:27:53;3.25;;;1.27;;
75320;SDS011;68337;52.196;5.660;2024-03-02T12:30:23;3.03;;;1.40;;
75320;SDS011;68337;52.196;5.660;2024-03-02T12:32:49;1.90;;;0.73;;
75320;SDS011;68337;52.196;5.660;2024-03-02T12:35:15;2.92;;;1.10;;
75320;SDS011;68337;52.196;5.660;2024-03-02T12:37:43;2.15;;;0.75;;
75320;SDS011;68337;52.196;5.660;2024-03-02T12:40:11;2.03;;;0.82;;
75320;SDS011;68337;52.196;5.660;2024-03-02T12:42:38;1.63;;;0.60;;
75320;SDS011;68337;52.196;5.660;2024-03-02T12:45:04;1.38;;;1.00;;
75320;SDS011;68337;52.196;5.660;2024-03-02T12:47:31;1.40;;;0.90;;
75320;SDS011;68337;52.196;5.660;2024-03-02T12:49:58;2.17;;;0.93;;
75320;SDS011;68337;52.196;5.660;2024-03-02T12:52:24;1.27;;;0.65;;
75320;SDS011;68337;52.196;5.660;2024-03-02T12:54:50;1.67;;;0.68;;
75320;SDS011;68337;52.196;5.660;2024-03-02T12:57:18;1.27;;;0.60;;
75320;SDS011;68337;52.196;5.660;2024-03-02T12:59:45;4.18;;;0.80;;
75320;SDS011;68337;52.196;5.660;2024-03-02T13:02:16;2.42;;;0.70;;
75320;SDS011;68337;52.196;5.660;2024-03-02T13:04:43;2.05;;;0.80;;
75320;SDS011;68337;52.196;5.660;2024-03-02T13:07:10;4.35;;;1.10;;
75320;SDS011;68337;52.196;5.660;2024-03-02T13:09:38;1.73;;;0.73;;
75320;SDS011;68337;52.196;5.660;2024-03-02T13:12:04;1.00;;;0.60;;
75320;SDS011;68337;52.196;5.660;2024-03-02T13:14:32;1.23;;;0.60;;
75320;SDS011;68337;52.196;5.660;2024-03-02T13:16:58;1.08;;;0.65;;
75320;SDS011;68337;52.196;5.660;2024-03-02T13:19:25;2.50;;;0.80;;
75320;SDS011;68337;52.196;5.660;2024-03-02T13:21:50;2.80;;;0.77;;
75320;SDS011;68337;52.196;5.660;2024-03-02T13:24:16;2.42;;;0.82;;
75320;SDS011;68337;52.196;5.660;2024-03-02T13:26:42;1.65;;;0.70;;
75320;SDS011;68337;52.196;5.660;2024-03-02T13:29:08;1.33;;;0.80;;
75320;SDS011;68337;52.196;5.660;2024-03-02T13:31:34;3.42;;;0.75;;
75320;SDS011;68337;52.196;5.660;2024-03-02T13:34:00;1.55;;;0.82;;
75320;SDS011;68337;52.196;5.660;2024-03-02T13:36:26;1.73;;;0.73;;
75320;SDS011;68337;52.196;5.660;2024-03-02T13:38:52;1.60;;;0.65;;
75320;SDS011;68337;52.196;5.660;2024-03-02T13:41:17;2.33;;;0.80;;
75320;SDS011;68337;52.196;5.660;2024-03-02T13:43:45;2.63;;;0.93;;
75320;SDS011;68337;52.196;5.660;2024-03-02T13:46:11;1.70;;;0.90;;
75320;SDS011;68337;52.196;5.660;2024-03-02T13:48:37;2.33;;;1.13;;
75320;SDS011;68337;52.196;5.660;2024-03-02T13:51:02;1.15;;;0.57;;
75320;SDS011;68337;52.196;5.660;2024-03-02T13:53:29;2.40;;;0.90;;
75320;SDS011;68337;52.196;5.660;2024-03-02T13:55:54;3.75;;;0.95;;
75320;SDS011;68337;52.196;5.660;2024-03-02T13:58:20;2.55;;;0.90;;
75320;SDS011;68337;52.196;5.660;2024-03-02T14:00:46;6.68;;;1.10;;
75320;SDS011;68337;52.196;5.660;2024-03-02T14:03:12;3.20;;;0.80;;
75320;SDS011;68337;52.196;5.660;2024-03-02T14:05:38;1.10;;;0.65;;
75320;SDS011;68337;52.196;5.660;2024-03-02T14:08:04;3.55;;;0.80;;
75320;SDS011;68337;52.196;5.660;2024-03-02T14:10:30;1.77;;;0.95;;
75320;SDS011;68337;52.196;5.660;2024-03-02T14:12:56;2.35;;;0.70;;
75320;SDS011;68337;52.196;5.660;2024-03-02T14:15:22;2.33;;;0.90;;
75320;SDS011;68337;52.196;5.660;2024-03-02T14:17:49;2.20;;;0.95;;
75320;SDS011;68337;52.196;5.660;2024-03-02T14:20:15;1.90;;;0.98;;
75320;SDS011;68337;52.196;5.660;2024-03-02T14:22:46;1.42;;;0.77;;
75320;SDS011;68337;52.196;5.660;2024-03-02T14:25:13;2.17;;;1.45;;
75320;SDS011;68337;52.196;5.660;2024-03-02T14:27:38;2.65;;;1.17;;
75320;SDS011;68337;52.196;5.660;2024-03-02T14:30:04;2.85;;;1.02;;
75320;SDS011;68337;52.196;5.660;2024-03-02T14:32:31;2.45;;;1.45;;
75320;SDS011;68337;52.196;5.660;2024-03-02T14:34:57;4.22;;;1.10;;
75320;SDS011;68337;52.196;5.660;2024-03-02T14:37:23;3.28;;;1.35;;
75320;SDS011;68337;52.196;5.660;2024-03-02T14:39:49;1.88;;;1.13;;
75320;SDS011;68337;52.196;5.660;2024-03-02T14:42:15;2.53;;;1.25;;
75320;SDS011;68337;52.196;5.660;2024-03-02T14:44:41;3.50;;;1.10;;
75320;SDS011;68337;52.196;5.660;2024-03-02T14:47:06;3.15;;;1.27;;
75320;SDS011;68337;52.196;5.660;2024-03-02T14:49:32;1.45;;;0.85;;